Search for airport 
image banner adimage banner adimage banner ad
image banner ad

8PA0 - Numidia

Located in Numidia, United States

ICAO - 8PA0, IATA -

Data provided by Airmate  

General information

Coordinates: N40°51'58" W76°23'51"
Elevation is 1070 feet MSL.
Magnetic variation is -11° East
View others Airports in Pennsylvania

Operational data

Special qualification required
Current time UTC:
Current local time:
Weather at : KHZL - Hazleton Rgnl ( 36 km )
METAR: KHZL 071255Z AUTO 11005KT 10SM SCT090 10/M03 A2993 RMK AO2
View NOTAMs / SUP AIP / TFR affecting this airport [VIEW]
Communications frequencies: [VIEW]

Runways:

RWY identifierQFULength (ft)Width (ft)SurfaceLDA (ft)
082000100GRASS
262000100GRASS

Airport contact information

Address: Numidia United States

Satellite view of 8PA0